Tiempo atmosférico en la estación meteorológica de Telde, Centro Forestal Doramas, Las Palmas (344 m.)



Fecha
DESCASC
Temp. máxima en grados centígrados (hora)
DESCASC
Temp. mínima en grados centígrados (hora)
DESCASC
Temp. media en grados centígrados
DESCASC
Racha de viento máxima en m/sg (hora)
DESCASC
Velocidad máxima media en intervalos de 10 minutos(hora)
DESCASC
Precipitaciones diarias en mm
DESCASC
Precipitaciones de 00:00 a 06:00 en mm
DESCASC
Precipitaciones de 06:00 a 12:00 en mm
DESCASC
Precipitaciones de 12:00 a 18:00 en mm
DESCASC
Precipitaciones de 18:00 a 24:00 en mm
DESCASC
31-03-2020 18.8 (10:20) 12.6 (04:10) 15.7 5.56 (12:40) 3.06 (12:40) 0 0 0 0 0
30-03-2020 18.6 (11:50) 11.2 (06:50) 14.9 6.11 (11:30) 3.33 (11:40) 0 0 0 0 0
29-03-2020 17.7 (10:50) 10.9 (00:00) 14.3 5.83 (13:50) 3.61 (03:50) 0 0 0 0 0
28-03-2020 19.6 (13:00) 12.1 (00:00) 15.9 10 (04:00) 5.56 (10:00) 0.6 0.6 0 0 0
27-03-2020 19.4 (12:50) 10.8 (00:00) 15.1 9.17 (10:20) 6.11 (05:20) 0.6 0 0 0 0.6
26-03-2020 17.7 (10:40) 11.2 (00:00) 14.5 7.78 (11:10) 3.89 (11:40) 3.4 0 0 3.4 0
25-03-2020 18.9 (11:30) 13 (00:00) 15.9 8.61 (11:40) 4.72 (10:30) 0 0 0 0 0
24-03-2020 19.3 (14:10) 13.7 (00:00) 16.5 14.44 (11:00) 7.5 (11:00) 0.6 0.2 0.4 0 0
23-03-2020 16 (14:10) 11.3 (00:00) 13.7 20.83 (06:50) 10 (06:50) 18.6 1.4 14 2.8 0.4
22-03-2020 19 (13:20) 13 (04:20) 16 11.11 (11:00) 6.11 (20:40) 0.4 0 0 0 0.4
21-03-2020 17.1 (14:00) 12.8 (00:00) 15 10.28 (23:10) 6.67 (15:50) 0.4 0 0 0 0.4
20-03-2020 20.1 (14:50) 13.8 (00:00) 17 11.67 (04:30) 6.39 (02:00) 3 0.2 0 0 2.8
19-03-2020 20 (14:00) 14.6 (00:00) 17.3 17.22 (01:50) 8.61 (11:50) 0.6 0 0.6 0 0
18-03-2020 18 (14:20) 11.5 (00:00) 14.8 15.28 (23:59) 7.78 (23:59) 0.8 0.8 0 0 0
17-03-2020 16.2 (13:10) 11.5 (00:00) 13.9 13.06 (23:50) 6.39 (18:20) 2.6 0.4 0.6 0.4 1.2
16-03-2020 18.7 (15:00) 13.6 (00:00) 16.2 14.17 (14:30) 7.78 (14:10) 1 0.2 0 0.2 0.6
15-03-2020 18.1 (15:20) 13.1 (00:00) 15.6 12.5 (17:50) 6.39 (16:00) 3.6 0.6 1.6 1.2 0.2
14-03-2020 17.2 (15:50) 14.4 (00:00) 15.8 9.72 (22:50) 5.83 (17:40) 0 0 0 0 0
13-03-2020 20.3 (12:50) 14.2 (02:10) 17.2 9.17 (17:30) 5.83 (16:10) 0 0 0 0 0
12-03-2020 25.4 (10:20) 14.1 (00:00) 19.8 6.94 (14:00) 4.44 (05:10) 0 0 0 0 0
11-03-2020 25.6 (13:40) 11.5 (00:00) 18.6 8.61 (13:40) 4.44 (13:50) 0 0 0 0 0
10-03-2020 22.8 (14:00) 13.7 (00:00) 18.2 6.11 (15:30) 4.17 (03:20) 0 0 0 0 0
09-03-2020 24.4 (14:00) 15.2 (00:00) 19.8 7.5 (10:20) 4.44 (04:30) 0 0 0 0 0
08-03-2020 24.3 (11:50) 12.4 (00:00) 18.3 10.56 (02:00) 6.39 (00:20) 0 0 0 0 0
07-03-2020 19.3 (13:40) 14.1 (00:00) 16.7 12.5 (20:20) 7.78 (20:20) 0 0 0 0 0
06-03-2020 16.6 (17:40) 13.5 (00:00) 15.1 12.22 (14:30) 6.94 (14:00) 4 2.8 1.2 0 0
05-03-2020 20 (13:10) 14 (00:00) 17 12.22 (10:10) 7.78 (13:20) 0 0 0 0 0
04-03-2020 25.3 (10:40) 15.3 (00:00) 20.3 6.39 (03:40) 5 (03:40) 0 0 0 0 0
03-03-2020 23.1 (13:50) 13.1 (00:00) 18.1 7.78 (00:10) 4.72 (10:50) 0 0 0 0 0
02-03-2020 20.9 (13:40) 14.7 (00:00) 17.8 11.11 (08:10) 6.94 (16:00) 0 0 0 0 0

Gráficas

Temp. máximas Temp. mínimas Temp. medias Precipitaciones Rachas de viento máximas Velocidades máximas media en intervalos de 10 minutos

Datos horarios

Fecha y hora oficial Temperatura (ºC) Velocidad del viento (km/h) Dirección del viento Racha (km/h) Dirección de racha Precipitación (mm) Presión (hPa) Tendencia (hPa) Humedad (%)
2020-03-31 23:00:00 15.9 0 Calma 4 Oeste 0 -- -- 88
2020-03-31 22:00:00 16 0 Calma 2 Sudoeste 0 -- -- 87
2020-03-31 21:00:00 16.1 0 Calma 4 Sudeste 0 -- -- 86
2020-03-31 20:00:00 16.3 3 Sudeste 8 Sudeste 0 -- -- 85
2020-03-31 19:00:00 16.4 2 Este 7 Este 0 -- -- 84
2020-03-31 18:00:00 16.4 4 Nordeste 12 Este 0 -- -- 84
2020-03-31 17:00:00 16.6 5 Nordeste 12 Nordeste 0 -- -- 82
2020-03-31 16:00:00 16.9 6 Este 13 Este 0 -- -- 82
2020-03-31 15:00:00 17.2 9 Este 14 Este 0 -- -- 80
2020-03-31 14:00:00 17.3 9 Este 15 Este 0 -- -- 80
2020-03-31 13:00:00 18 9 Este 20 Nordeste 0 -- -- 74
2020-03-31 12:00:00 18.5 8 Este 15 Este 0 -- -- 69
2020-03-31 11:00:00 18.6 5 Este 11 Este 0 -- -- 67
2020-03-31 10:00:00 18.2 3 Este 9 Oeste 0 -- -- 67
2020-03-31 09:00:00 14.5 8 Oeste 12 Oeste 0 -- -- 78
2020-03-31 08:00:00 13 9 Sudoeste 15 Oeste 0 -- -- 82
2020-03-31 07:00:00 13.1 7 Oeste 13 Oeste 0 -- -- 83
2020-03-31 06:00:00 13.5 8 Oeste 14 Oeste 0 -- -- 83
2020-03-31 05:00:00 13.1 7 Oeste 13 Oeste 0 -- -- 82
2020-03-31 04:00:00 12.7 8 Oeste 14 Sudoeste 0 -- -- 83
2020-03-31 03:00:00 12.9 9 Sudoeste 13 Sudoeste 0 -- -- 84
2020-03-31 02:00:00 13.1 6 Sudoeste 10 Sudoeste 0 -- -- 84
2020-03-31 01:00:00 13.4 6 Sudoeste 13 Sudoeste 0 -- -- 85
2020-03-31 00:00:00 13.7 6 Oeste 13 Oeste 0 -- -- 85
2020-03-30 23:00:00 13.9 6 Oeste 10 Oeste 0 -- -- 88
2020-03-30 22:00:00 14.6 4 Sudoeste 9 Sudoeste 0 -- -- 88
2020-03-30 21:00:00 15.6 4 Nordeste 12 Este 0 -- -- 86
2020-03-30 20:00:00 16.4 6 Este 12 Este 0 -- -- 83
2020-03-30 19:00:00 17.7 3 Noroeste 14 Noroeste 0 -- -- 77
2020-03-30 18:00:00 17.7 9 Noroeste 15 Noroeste 0 -- -- 77
2020-03-30 17:00:00 16.9 7 Norte 19 Noroeste 0 -- -- 79
2020-03-30 16:00:00 17 8 Norte 20 Este 0 -- -- 78
2020-03-30 15:00:00 16.9 11 Este 20 Este 0 -- -- 76
2020-03-30 14:00:00 18 10 Este 18 Este 0 -- -- 72
2020-03-30 13:00:00 17.7 8 Sudeste 21 Nordeste 0 -- -- 73
2020-03-30 12:00:00 18.4 9 Este 22 Este 0 -- -- 69
2020-03-30 11:00:00 18.1 10 Este 16 Este 0 -- -- 66
2020-03-30 10:00:00 17.1 5 Nordeste 10 Este 0 -- -- 69
2020-03-30 09:00:00 13.4 8 Oeste 15 Oeste 0 -- -- 77
2020-03-30 08:00:00 11.6 11 Oeste 15 Oeste 0 -- -- 82
2020-03-30 07:00:00 11.3 7 Sudoeste 14 Sudoeste 0 -- -- 85
2020-03-30 06:00:00 11.7 9 Sudoeste 14 Oeste 0 -- -- 84
2020-03-30 05:00:00 11.7 8 Sudoeste 14 Sudoeste 0 -- -- 85
2020-03-30 04:00:00 12 7 Sudoeste 16 Oeste 0 -- -- 84
2020-03-30 03:00:00 12.2 7 Oeste 14 Sudoeste 0 -- -- 83
2020-03-30 02:00:00 12.5 9 Oeste 15 Sudoeste 0 -- -- 81
2020-03-30 01:00:00 12.6 8 Sudoeste 13 Oeste 0 -- -- 83
2020-03-30 00:00:00 13.4 7 Oeste 12 Oeste 0 -- -- 83
2020-03-29 23:00:00 14.6 2 Sudoeste 6 Sudoeste 0 -- -- 82
2020-03-29 22:00:00 15.2 0 Calma 6 Este 0 -- -- 81
2020-03-29 21:00:00 15.4 3 Este 9 Este 0 -- -- 79
2020-03-29 20:00:00 15.7 5 Este 9 Este 0 -- -- 79
2020-03-29 19:00:00 16.1 4 Sudeste 12 Este 0 -- -- 78
2020-03-29 18:00:00 16.5 6 Este 14 Sudeste 0 -- -- 76
2020-03-29 17:00:00 16.1 6 Este 13 Sudeste 0 -- -- 76
2020-03-29 16:00:00 15.9 6 Este 12 Este 0 -- -- 75
2020-03-29 15:00:00 16 8 Este 16 Este 0 -- -- 75
2020-03-29 14:00:00 16.4 9 Este 21 Este 0 -- -- 73
2020-03-29 13:00:00 16.8 6 Este 16 Este 0 -- -- 72
2020-03-29 12:00:00 17 8 Nordeste 16 Este 0 -- -- 70
2020-03-29 11:00:00 17.4 9 Este 16 Este 0 -- -- 68
2020-03-29 10:00:00 16.3 5 Este 13 Este 0 -- -- 72
2020-03-29 09:00:00 13.1 5 Oeste 15 Sudoeste 0 -- -- 72
2020-03-29 08:00:00 11.2 11 Sudoeste 17 Oeste 0 -- -- 76
2020-03-29 07:00:00 11 11 Oeste 16 Oeste 0 -- -- 76
2020-03-29 06:00:00 11.1 10 Sudoeste 18 Sudoeste 0 -- -- 77
2020-03-29 05:00:00 11.4 9 Sudoeste 17 Sudoeste 0 -- -- 74
2020-03-29 04:00:00 11.7 12 Oeste 17 Oeste 0 -- -- 70
2020-03-29 00:00:00 12.4 8 Sudoeste 15 Oeste 0 -- -- 70
2020-03-28 23:00:00 12.8 12 Oeste 17 Oeste 0 -- -- 71
2020-03-28 22:00:00 12.7 9 Oeste 14 Oeste 0 -- -- 77
2020-03-28 21:00:00 13.4 5 Oeste 10 Noroeste 0 -- -- 79
2020-03-28 20:00:00 14.8 7 Noroeste 16 Oeste 0 -- -- 78
2020-03-28 19:00:00 15.8 9 Noroeste 18 Noroeste 0 -- -- 69
2020-03-28 18:00:00 16.7 10 Norte 21 Noroeste 0 -- -- 65
2020-03-28 17:00:00 17 7 Norte 19 Noroeste 0 -- -- 64
2020-03-28 16:00:00 17.2 10 Norte 22 Norte 0 -- -- 62
2020-03-28 15:00:00 17.8 15 Norte 25 Norte 0 -- -- 63
2020-03-28 14:00:00 18.7 12 Norte 28 Noroeste 0 -- -- 59
2020-03-28 13:00:00 19.6 15 Norte 33 Norte 0 -- -- 56
2020-03-28 12:00:00 18.7 20 Norte 33 Norte 0 -- -- 60
2020-03-28 11:00:00 18.6 13 Norte 28 Noroeste 0 -- -- 61
2020-03-28 10:00:00 17.5 20 Norte 30 Norte 0 -- -- 57
2020-03-28 09:00:00 16.2 13 Noroeste 25 Noroeste 0 -- -- 64
2020-03-28 08:00:00 14.6 7 Noroeste 23 Oeste 0 -- -- 70
2020-03-28 07:00:00 13.5 11 Oeste 21 Oeste 0 -- -- 70
2020-03-28 06:00:00 13.7 7 Oeste 27 Oeste 0 -- -- 70
2020-03-28 05:00:00 13.9 15 Oeste 34 Oeste 0 -- -- 68
2020-03-28 04:00:00 13.7 19 Oeste 36 Oeste 0 -- -- 72
2020-03-28 03:00:00 12.5 6 Sudoeste 21 Noroeste 0 -- -- 80
2020-03-28 02:00:00 13.3 12 Noroeste 21 Noroeste 0.2 -- -- 78
2020-03-28 01:00:00 13.2 7 Oeste 11 Oeste 0.4 -- -- 89
2020-03-28 00:00:00 14 6 Oeste 10 Norte 0.6 -- -- 87
2020-03-27 23:00:00 14.1 5 Noroeste 12 Noroeste 0 -- -- 89
2020-03-27 22:00:00 14 0 Calma 8 Oeste 0 -- -- 91
2020-03-27 21:00:00 14.1 3 Nordeste 6 Este 0 -- -- 90
2020-03-27 20:00:00 14.8 4 Sudeste 10 Este 0 -- -- 86
2020-03-27 19:00:00 15.2 5 Este 16 Sudeste 0 -- -- 84
2020-03-27 18:00:00 15.5 8 Este 16 Sudeste 0 -- -- 79
2020-03-27 17:00:00 15.6 10 Sudeste 25 Sudeste 0 -- -- 73
2020-03-27 16:00:00 16.9 16 Este 29 Sudeste 0 -- -- 72
2020-03-27 15:00:00 18.4 10 Sudeste 26 Este 0 -- -- 62
2020-03-27 14:00:00 18.7 12 Sudeste 26 Este 0 -- -- 63
2020-03-27 13:00:00 19.1 14 Sudeste 28 Sudeste 0 -- -- 63
2020-03-27 12:00:00 18.3 10 Este 25 Oeste 0 -- -- 61
2020-03-27 11:00:00 16.6 13 Noroeste 33 Norte 0 -- -- 68
2020-03-27 10:00:00 17 16 Noroeste 28 Noroeste 0 -- -- 68
2020-03-27 09:00:00 16.4 8 Noroeste 19 Noroeste 0 -- -- 65
2020-03-27 08:00:00 14.4 6 Oeste 20 Oeste 0 -- -- 70
2020-03-27 07:00:00 13.9 9 Noroeste 23 Noroeste 0 -- -- 71
2020-03-27 06:00:00 13.2 7 Oeste 33 Oeste 0 -- -- 74
2020-03-27 05:00:00 12.7 21 Oeste 30 Oeste 0 -- -- 81
2020-03-27 04:00:00 12.1 7 Oeste 14 Oeste 0 -- -- 76
2020-03-27 03:00:00 11.1 8 Sudoeste 14 Oeste 0 -- -- 78
2020-03-27 02:00:00 11.4 9 Sudoeste 13 Sudoeste 0 -- -- 80
2020-03-27 01:00:00 10.9 8 Sudoeste 12 Sudoeste 0 -- -- 84
2020-03-27 00:00:00 11.3 7 Sudoeste 13 Sudoeste 0 -- -- 86
2020-03-26 23:00:00 12 8 Sudoeste 12 Sudoeste 0 -- -- 88
2020-03-26 22:00:00 13.1 4 Noroeste 10 Noroeste 0 -- -- 85
2020-03-26 21:00:00 13.2 4 Oeste 8 Nordeste 0 -- -- 87
2020-03-26 20:00:00 13.7 6 Norte 9 Norte 0 -- -- 84
2020-03-26 19:00:00 14.2 5 Norte 10 Oeste 0 -- -- 84
2020-03-26 18:00:00 14.1 3 Oeste 8 Oeste 0 -- -- 86
2020-03-26 17:00:00 14 3 Oeste 8 Oeste 0 -- -- 86
2020-03-26 16:00:00 14 5 Sudoeste 9 Sudoeste 0.2 -- -- 87
2020-03-26 15:00:00 14.1 0 Calma 9 Noroeste 1.2 -- -- 86
2020-03-26 14:00:00 14 6 Oeste 8 Oeste 1 -- -- 86
2020-03-26 13:00:00 14.5 6 Este 18 Este 1 -- -- 82
2020-03-26 12:00:00 15.8 11 Nordeste 28 Nordeste 0 -- -- 73
2020-03-26 11:00:00 17.4 13 Nordeste 26 Este 0 -- -- 66
2020-03-26 10:00:00 16.4 9 Nordeste 22 Este 0 -- -- 68
2020-03-26 09:00:00 16.2 7 Nordeste 15 Nordeste 0 -- -- 67
2020-03-26 08:00:00 12.9 8 Oeste 17 Sudoeste 0 -- -- 71
2020-03-26 07:00:00 11.2 10 Oeste 14 Oeste 0 -- -- 76
2020-03-26 06:00:00 11.9 6 Sudoeste 11 Sudoeste 0 -- -- 76
2020-03-26 05:00:00 12.7 3 Oeste 11 Oeste 0 -- -- 76
2020-03-26 04:00:00 13.2 8 Oeste 10 Oeste 0 -- -- 77
2020-03-26 03:00:00 13 7 Oeste 12 Oeste 0 -- -- 83
2020-03-26 02:00:00 13.2 6 Oeste 9 Oeste 0 -- -- 80
2020-03-26 01:00:00 13.4 4 Sudoeste 8 Oeste 0 -- -- 74
2020-03-26 00:00:00 13.3 0 Calma 12 Oeste 0 -- -- 74
2020-03-25 23:00:00 13.1 9 Oeste 18 Noroeste 0 -- -- 80
2020-03-25 22:00:00 13.8 10 Noroeste 18 Noroeste 0 -- -- 77
2020-03-25 21:00:00 14.3 9 Norte 18 Norte 0 -- -- 77
2020-03-25 20:00:00 14.5 6 Noroeste 19 Norte 0 -- -- 75
2020-03-25 19:00:00 15.4 4 Nordeste 14 Norte 0 -- -- 73
2020-03-25 18:00:00 15.6 6 Norte 18 Este 0 -- -- 70
2020-03-25 17:00:00 15.4 11 Este 20 Este 0 -- -- 74
2020-03-25 16:00:00 15.7 7 Nordeste 21 Nordeste 0 -- -- 75
2020-03-25 15:00:00 15.8 8 Nordeste 24 Nordeste 0 -- -- 74
2020-03-25 14:00:00 15.9 13 Nordeste 27 Este 0 -- -- 71
2020-03-25 13:00:00 16.4 14 Nordeste 30 Este 0 -- -- 70
2020-03-25 12:00:00 17.9 13 Nordeste 31 Nordeste 0 -- -- 58
2020-03-25 11:00:00 17.8 14 Norte 26 Norte 0 -- -- 60
2020-03-25 10:00:00 17.3 12 Norte 22 Oeste 0 -- -- 53
2020-03-25 09:00:00 16.2 12 Oeste 21 Oeste 0 -- -- 55
2020-03-25 08:00:00 14.6 9 Oeste 12 Oeste 0 -- -- 65
2020-03-25 07:00:00 13.5 5 Noroeste 16 Noroeste 0 -- -- 73
2020-03-25 06:00:00 14 8 Oeste 20 Noroeste 0 -- -- 71
2020-03-25 05:00:00 14.3 8 Oeste 17 Noroeste 0 -- -- 70
2020-03-25 04:00:00 14.5 10 Noroeste 23 Oeste 0 -- -- 71
2020-03-25 03:00:00 14.5 15 Oeste 29 Oeste 0 -- -- 71
2020-03-25 02:00:00 14.5 10 Noroeste 24 Noroeste 0 -- -- 73
2020-03-25 01:00:00 14.5 13 Noroeste 21 Noroeste 0 -- -- 80
2020-03-25 00:00:00 14.8 11 Noroeste 21 Noroeste 0 -- -- 74
2020-03-24 23:00:00 14.6 10 Noroeste 22 Oeste 0 -- -- 70
2020-03-24 22:00:00 14.6 9 Noroeste 26 Noroeste 0 -- -- 73
2020-03-24 21:00:00 15 12 Noroeste 26 Oeste 0 -- -- 78
2020-03-24 20:00:00 15.2 8 Noroeste 27 Noroeste 0 -- -- 71
2020-03-24 19:00:00 15.6 16 Noroeste 31 Noroeste 0 -- -- 72
2020-03-24 18:00:00 16.5 16 Noroeste 32 Noroeste 0 -- -- 65
2020-03-24 17:00:00 17.3 15 Noroeste 29 Oeste 0 -- -- 64
2020-03-24 16:00:00 17.7 20 Noroeste 38 Norte 0 -- -- 59
2020-03-24 15:00:00 18.3 15 Noroeste 42 Noroeste 0 -- -- 52
2020-03-24 14:00:00 19 18 Noroeste 44 Norte 0 -- -- 52
2020-03-24 13:00:00 18.7 22 Noroeste 47 Norte 0 -- -- 51
2020-03-24 12:00:00 18.6 17 Noroeste 45 Oeste 0 -- -- 54
2020-03-24 11:00:00 16.9 27 Noroeste 52 Noroeste 0.2 -- -- 63
2020-03-24 10:00:00 15.4 18 Noroeste 36 Noroeste 0.2 -- -- 77
2020-03-24 09:00:00 15.4 15 Noroeste 38 Noroeste 0 -- -- 73
2020-03-24 08:00:00 14.6 16 Noroeste 40 Noroeste 0 -- -- 74
2020-03-24 07:00:00 13.8 13 Oeste 42 Noroeste 0 -- -- 75
2020-03-24 06:00:00 14 12 Noroeste 40 Noroeste 0.2 -- -- 78
2020-03-24 05:00:00 14.3 19 Noroeste 40 Noroeste 0 -- -- 77
2020-03-24 04:00:00 14.4 16 Noroeste 41 Noroeste 0 -- -- 76
2020-03-24 03:00:00 14.3 14 Noroeste 38 Noroeste 0 -- -- 77
2020-03-24 02:00:00 14.3 19 Noroeste 39 Noroeste 0 -- -- 75
2020-03-24 01:00:00 14 14 Noroeste 51 Noroeste 0 -- -- 76
2020-03-24 00:00:00 14 22 Noroeste 44 Noroeste 0.4 -- -- 82
2020-03-23 23:00:00 14.4 19 Noroeste 40 Noroeste 0 -- -- 74
2020-03-23 22:00:00 14.1 20 Noroeste 43 Noroeste 0 -- -- 77
2020-03-23 21:00:00 14.4 23 Noroeste 45 Noroeste 0 -- -- 77
2020-03-23 20:00:00 14.2 27 Noroeste 47 Noroeste 0 -- -- 78
2020-03-23 19:00:00 14.4 33 Noroeste 52 Noroeste 0 -- -- 72
2020-03-23 18:00:00 14.6 22 Noroeste 51 Noroeste 0 -- -- 74
2020-03-23 17:00:00 14.9 23 Noroeste 48 Oeste 0 -- -- 71
2020-03-23 16:00:00 15.6 24 Norte 47 Norte 0 -- -- 70
2020-03-23 15:00:00 14.7 16 Noroeste 50 Noroeste 2.2 -- -- 82
2020-03-23 14:00:00 15.7 24 Noroeste 51 Noroeste 0 -- -- 67
2020-03-23 13:00:00 14.8 21 Noroeste 53 Oeste 0.6 -- -- 75
2020-03-23 12:00:00 14.4 24 Noroeste 46 Oeste 0.8 -- -- 77
2020-03-23 11:00:00 13.3 17 Noroeste 42 Norte 1.8 -- -- 82
2020-03-23 10:00:00 13.1 22 Noroeste 58 Noroeste 1.6 -- -- 76
2020-03-23 09:00:00 12.6 24 Noroeste 62 Norte 2.8 -- -- 79
2020-03-23 08:00:00 11.7 32 Noroeste 67 Norte 3.2 -- -- 84
2020-03-23 07:00:00 11.5 33 Noroeste 75 Noroeste 3.8 -- -- 84
2020-03-23 06:00:00 11.5 19 Noroeste 55 Oeste 1.4 -- -- 78
2020-03-23 05:00:00 13.2 22 Oeste 55 Oeste 0 -- -- 60
2020-03-23 04:00:00 13.6 16 Oeste 50 Oeste 0 -- -- 64
2020-03-23 03:00:00 14.1 17 Oeste 36 Oeste 0 -- -- 55
2020-03-23 02:00:00 13.9 17 Oeste 45 Oeste 0 -- -- 63
2020-03-23 01:00:00 14.3 9 Noroeste 40 Oeste 0 -- -- 63
2020-03-23 00:00:00 14.9 16 Oeste 38 Oeste 0 -- -- 55
2020-03-22 23:00:00 14.5 8 Noroeste 31 Oeste 0 -- -- 57
2020-03-22 22:00:00 15 15 Noroeste 33 Oeste 0 -- -- 59
2020-03-22 21:00:00 14.8 14 Oeste 38 Oeste 0 -- -- 58
2020-03-22 20:00:00 13.7 18 Oeste 38 Noroeste 0.4 -- -- 74
2020-03-22 19:00:00 14.2 14 Noroeste 25 Noroeste 0 -- -- 81
2020-03-22 18:00:00 16 6 Nordeste 19 Este 0 -- -- 73
2020-03-22 17:00:00 17 9 Nordeste 26 Este 0 -- -- 67
2020-03-22 16:00:00 17.3 11 Este 24 Sudeste 0 -- -- 65
2020-03-22 15:00:00 16.5 15 Este 29 Este 0 -- -- 66
2020-03-22 14:00:00 17.9 16 Este 33 Sudeste 0 -- -- 59
2020-03-22 13:00:00 18.7 10 Sudeste 23 Sudeste 0 -- -- 55
2020-03-22 12:00:00 17.1 9 Oeste 38 Norte 0 -- -- 54
2020-03-22 11:00:00 17.6 20 Noroeste 40 Noroeste 0 -- -- 57
2020-03-22 10:00:00 15.9 13 Noroeste 27 Oeste 0 -- -- 66
2020-03-22 09:00:00 14.7 10 Noroeste 24 Noroeste 0 -- -- 61
2020-03-22 08:00:00 14.4 9 Norte 23 Noroeste 0 -- -- 62
2020-03-22 07:00:00 13.4 10 Oeste 31 Oeste 0 -- -- 72
2020-03-22 06:00:00 13.4 10 Oeste 23 Oeste 0 -- -- 71
2020-03-22 05:00:00 13.2 10 Noroeste 32 Noroeste 0 -- -- 74
2020-03-22 04:00:00 13.4 16 Noroeste 32 Noroeste 0 -- -- 71
2020-03-22 03:00:00 13.7 14 Oeste 25 Noroeste 0 -- -- 68
2020-03-22 02:00:00 13.5 9 Oeste 25 Oeste 0 -- -- 66
2020-03-22 01:00:00 13.4 13 Oeste 27 Noroeste 0 -- -- 67
2020-03-22 00:00:00 13.6 10 Noroeste 37 Noroeste 0 -- -- 76
2020-03-21 23:00:00 13.1 15 Noroeste 32 Noroeste 0.2 -- -- 82
2020-03-21 22:00:00 13.4 15 Norte 30 Oeste 0.2 -- -- 80
2020-03-21 21:00:00 13 23 Oeste 36 Noroeste 0 -- -- 77
2020-03-21 20:00:00 12.9 18 Oeste 30 Noroeste 0 -- -- 77
2020-03-21 19:00:00 14.8 13 Noroeste 35 Noroeste 0 -- -- 59
2020-03-21 18:00:00 16.1 13 Noroeste 34 Norte 0 -- -- 54
2020-03-21 17:00:00 15.6 16 Norte 31 Noroeste 0 -- -- 58
2020-03-21 16:00:00 15.4 23 Norte 36 Norte 0 -- -- 63
2020-03-21 15:00:00 16.8 16 Noroeste 35 Oeste 0 -- -- 57
2020-03-21 14:00:00 17.1 22 Norte 35 Norte 0 -- -- 57
2020-03-21 13:00:00 16.7 19 Norte 32 Norte 0 -- -- 58
2020-03-21 12:00:00 15.4 15 Noroeste 31 Noroeste 0 -- -- 61
2020-03-21 11:00:00 14.8 13 Noroeste 28 Oeste 0 -- -- 67
2020-03-21 10:00:00 13.6 9 Noroeste 25 Noroeste 0 -- -- 74
2020-03-21 09:00:00 13.3 8 Noroeste 26 Noroeste 0 -- -- 70
2020-03-21 08:00:00 12.9 14 Oeste 26 Noroeste 0 -- -- 73
2020-03-21 07:00:00 13.1 9 Noroeste 24 Noroeste 0 -- -- 73
2020-03-21 06:00:00 13.3 7 Noroeste 19 Oeste 0 -- -- 69
2020-03-21 05:00:00 13.3 9 Noroeste 26 Noroeste 0 -- -- 74
2020-03-21 04:00:00 13.5 14 Oeste 31 Noroeste 0 -- -- 75
2020-03-21 03:00:00 13.2 8 Noroeste 32 Noroeste 0 -- -- 75
2020-03-21 02:00:00 13.6 13 Noroeste 30 Noroeste 0 -- -- 80
2020-03-21 01:00:00 13.8 12 Noroeste 28 Noroeste 0 -- -- 85
2020-03-21 00:00:00 14.1 15 Noroeste 29 Noroeste 0 -- -- 88
2020-03-20 23:00:00 14 13 Noroeste 24 Norte 0.8 -- -- 89
2020-03-20 22:00:00 14.1 9 Noroeste 28 Noroeste 0.2 -- -- 90
2020-03-20 21:00:00 13.9 10 Noroeste 26 Noroeste 1.2 -- -- 91
2020-03-20 20:00:00 14 14 Noroeste 29 Noroeste 0.4 -- -- 87
2020-03-20 19:00:00 14.8 12 Noroeste 26 Norte 0.2 -- -- 83
2020-03-20 18:00:00 15.6 14 Noroeste 29 Noroeste 0 -- -- 80
2020-03-20 17:00:00 18.8 18 Norte 33 Noroeste 0 -- -- 58
2020-03-20 16:00:00 19.1 15 Noroeste 42 Norte 0 -- -- 54
2020-03-20 15:00:00 20.1 18 Noroeste 33 Norte 0 -- -- 50
2020-03-20 14:00:00 19.4 22 Norte 35 Norte 0 -- -- 55
2020-03-20 13:00:00 19 23 Norte 39 Noroeste 0 -- -- 61
2020-03-20 12:00:00 18.7 16 Noroeste 40 Noroeste 0 -- -- 56
2020-03-20 11:00:00 17.9 19 Norte 41 Noroeste 0 -- -- 62
2020-03-20 10:00:00 15.4 14 Noroeste 37 Noroeste 0 -- -- 80
2020-03-20 09:00:00 15.9 15 Noroeste 35 Noroeste 0 -- -- 69
2020-03-20 08:00:00 14.8 22 Noroeste 39 Noroeste 0 -- -- 79
2020-03-20 07:00:00 15 15 Noroeste 42 Noroeste 0 -- -- 76
2020-03-20 06:00:00 15 18 Noroeste 38 Noroeste 0 -- -- 79
2020-03-20 05:00:00 15.3 16 Noroeste 42 Noroeste 0 -- -- 79
2020-03-20 04:00:00 15.2 20 Noroeste 34 Noroeste 0 -- -- 80
2020-03-20 03:00:00 15.1 23 Noroeste 41 Noroeste 0 -- -- 79
2020-03-20 02:00:00 15.2 23 Noroeste 36 Noroeste 0 -- -- 81
2020-03-20 01:00:00 15.2 15 Noroeste 36 Noroeste 0.2 -- -- 80
2020-03-20 00:00:00 15.5 22 Noroeste 41 Noroeste 0 -- -- 78
2020-03-19 23:00:00 15.3 20 Noroeste 38 Noroeste 0 -- -- 81
2020-03-19 22:00:00 15.1 17 Noroeste 37 Noroeste 0 -- -- 83
2020-03-19 21:00:00 15.6 20 Noroeste 38 Noroeste 0 -- -- 79
2020-03-19 20:00:00 15.8 18 Noroeste 42 Noroeste 0 -- -- 79
2020-03-19 19:00:00 16 18 Noroeste 42 Noroeste 0 -- -- 76
2020-03-19 18:00:00 16.7 20 Noroeste 37 Noroeste 0 -- -- 73
2020-03-19 17:00:00 17.4 21 Norte 42 Noroeste 0 -- -- 69
2020-03-19 16:00:00 18.3 19 Noroeste 42 Noroeste 0 -- -- 62
2020-03-19 15:00:00 18.6 21 Noroeste 49 Noroeste 0 -- -- 58
2020-03-19 14:00:00 20 18 Noroeste 50 Noroeste 0 -- -- 44
2020-03-19 13:00:00 19.1 26 Noroeste 55 Noroeste 0 -- -- 45
2020-03-19 12:00:00 18 26 Noroeste 51 Oeste 0 -- -- 56
2020-03-19 11:00:00 16.9 26 Noroeste 50 Noroeste 0 -- -- 75
2020-03-19 10:00:00 16.7 23 Noroeste 50 Noroeste 0 -- -- 78
2020-03-19 09:00:00 15.7 27 Noroeste 47 Noroeste 0.6 -- -- 80
2020-03-19 08:00:00 15.6 19 Noroeste 48 Noroeste 0 -- -- 77
2020-03-19 07:00:00 14.8 22 Noroeste 42 Noroeste 0 -- -- 78
2020-03-19 06:00:00 14.9 26 Oeste 59 Oeste 0 -- -- 75
2020-03-19 05:00:00 14.9 19 Noroeste 58 Noroeste 0 -- -- 72
2020-03-19 04:00:00 14.6 19 Noroeste 49 Noroeste 0 -- -- 72
2020-03-19 03:00:00 14.8 24 Noroeste 59 Noroeste 0 -- -- 71
2020-03-19 02:00:00 14.9 20 Noroeste 62 Noroeste 0 -- -- 74
2020-03-19 01:00:00 14.9 22 Oeste 49 Oeste 0 -- -- 72
2020-03-19 00:00:00 14.8 28 Oeste 55 Oeste 0 -- -- 68
2020-03-18 23:00:00 14.4 21 Oeste 48 Noroeste 0 -- -- 68
2020-03-18 22:00:00 14.4 24 Noroeste 45 Noroeste 0 -- -- 67
2020-03-18 21:00:00 14.6 21 Noroeste 48 Noroeste 0 -- -- 72
2020-03-18 20:00:00 14.6 22 Noroeste 48 Noroeste 0 -- -- 74
2020-03-18 19:00:00 14.9 18 Noroeste 41 Oeste 0 -- -- 72
2020-03-18 18:00:00 15.7 23 Noroeste 42 Noroeste 0 -- -- 63
2020-03-18 17:00:00 15.8 26 Noroeste 49 Noroeste 0 -- -- 66
2020-03-18 16:00:00 17.3 21 Noroeste 45 Noroeste 0 -- -- 56
2020-03-18 15:00:00 17 22 Noroeste 42 Noroeste 0 -- -- 58
2020-03-18 14:00:00 17.8 22 Norte 41 Noroeste 0 -- -- 50
2020-03-18 13:00:00 16.9 15 Noroeste 42 Noroeste 0 -- -- 54
2020-03-18 12:00:00 16.5 19 Noroeste 50 Noroeste 0 -- -- 59
2020-03-18 11:00:00 15.7 16 Oeste 44 Noroeste 0 -- -- 69
2020-03-18 10:00:00 15.1 18 Noroeste 43 Norte 0 -- -- 64
2020-03-18 09:00:00 14.8 15 Noroeste 39 Oeste 0 -- -- 70
2020-03-18 08:00:00 13.3 21 Oeste 41 Noroeste 0 -- -- 73
2020-03-18 07:00:00 12.5 16 Noroeste 35 Noroeste 0 -- -- 82
2020-03-18 06:00:00 12.5 19 Noroeste 35 Noroeste 0 -- -- 83
2020-03-18 05:00:00 11.5 18 Noroeste 37 Noroeste 0.2 -- -- 87
2020-03-18 04:00:00 12.4 18 Noroeste 42 Noroeste 0 -- -- 82
2020-03-18 03:00:00 12 13 Noroeste 37 Oeste 0 -- -- 80
2020-03-18 02:00:00 12.8 19 Noroeste 40 Noroeste 0.2 -- -- 80
2020-03-18 01:00:00 12.2 17 Noroeste 41 Noroeste 0.4 -- -- 88
2020-03-18 00:00:00 12.2 14 Noroeste 47 Noroeste 0.4 -- -- 87
2020-03-17 23:00:00 12.2 14 Noroeste 31 Oeste 0.6 -- -- 87
2020-03-17 22:00:00 13.2 17 Noroeste 36 Noroeste 0 -- -- 75
2020-03-17 21:00:00 13.2 18 Noroeste 44 Noroeste 0.2 -- -- 82
2020-03-17 20:00:00 13.4 15 Noroeste 42 Noroeste 0 -- -- 76
2020-03-17 19:00:00 14.3 13 Noroeste 38 Noroeste 0 -- -- 67
2020-03-17 18:00:00 14.7 18 Noroeste 35 Noroeste 0 -- -- 63
2020-03-17 17:00:00 15 19 Noroeste 38 Noroeste 0 -- -- 70
2020-03-17 16:00:00 15.2 15 Noroeste 39 Noroeste 0 -- -- 67
2020-03-17 15:00:00 15.4 19 Noroeste 34 Oeste 0.2 -- -- 69
2020-03-17 14:00:00 14.3 19 Noroeste 40 Norte 0.2 -- -- 77
2020-03-17 13:00:00 16.1 19 Norte 35 Noroeste 0 -- -- 64
2020-03-17 12:00:00 13.4 16 Noroeste 37 Noroeste 0 -- -- 83
2020-03-17 11:00:00 13.7 18 Noroeste 33 Noroeste 0.2 -- -- 76
2020-03-17 10:00:00 12.9 15 Noroeste 32 Noroeste 0 -- -- 82
2020-03-17 09:00:00 12.2 15 Noroeste 34 Noroeste 0.2 -- -- 83
2020-03-17 08:00:00 11.9 13 Noroeste 33 Noroeste 0 -- -- 84
2020-03-17 07:00:00 12 16 Noroeste 32 Noroeste 0.2 -- -- 81
2020-03-17 06:00:00 11.8 13 Noroeste 34 Oeste 0.2 -- -- 85
2020-03-17 05:00:00 11.6 15 Oeste 34 Noroeste 0 -- -- 86
2020-03-17 04:00:00 11.8 18 Oeste 34 Noroeste 0.2 -- -- 85
2020-03-17 03:00:00 12.2 15 Oeste 30 Noroeste 0 -- -- 80
2020-03-17 02:00:00 13 20 Noroeste 36 Noroeste 0 -- -- 72
2020-03-17 01:00:00 13.5 15 Norte 36 Oeste 0 -- -- 70
2020-03-17 00:00:00 13.9 21 Noroeste 39 Noroeste 0 -- -- 71
2020-03-16 23:00:00 14 19 Noroeste 44 Noroeste 0 -- -- 79
2020-03-16 22:00:00 13.9 18 Noroeste 37 Noroeste 0.2 -- -- 86
2020-03-16 21:00:00 14.3 22 Noroeste 39 Noroeste 0 -- -- 85
2020-03-16 20:00:00 14.2 18 Noroeste 44 Noroeste 0.2 -- -- 85
2020-03-16 19:00:00 14.2 18 Noroeste 38 Noroeste 0.2 -- -- 84
2020-03-16 18:00:00 15.3 23 Noroeste 39 Noroeste 0 -- -- 79
2020-03-16 17:00:00 16.1 21 Norte 42 Noroeste 0.2 -- -- 76
2020-03-16 16:00:00 17.9 21 Noroeste 41 Noroeste 0 -- -- 61
2020-03-16 15:00:00 18.7 20 Norte 51 Noroeste 0 -- -- 58
2020-03-16 14:00:00 18.2 27 Noroeste 48 Noroeste 0 -- -- 56
2020-03-16 13:00:00 18.5 19 Noroeste 47 Noroeste 0 -- -- 54
2020-03-16 12:00:00 17.2 19 Noroeste 46 Noroeste 0 -- -- 59
2020-03-16 11:00:00 16.9 23 Norte 40 Noroeste 0 -- -- 55
2020-03-16 10:00:00 15.5 20 Noroeste 36 Noroeste 0 -- -- 70
2020-03-16 09:00:00 14.5 15 Noroeste 38 Noroeste 0 -- -- 82
2020-03-16 08:00:00 14.5 18 Noroeste 39 Norte 0 -- -- 82
2020-03-16 07:00:00 14.4 18 Noroeste 42 Noroeste 0 -- -- 82
2020-03-16 06:00:00 14.3 22 Noroeste 36 Noroeste 0 -- -- 78
2020-03-16 05:00:00 14.4 11 Norte 29 Noroeste 0 -- -- 83
2020-03-16 04:00:00 14.6 15 Noroeste 36 Norte 0 -- -- 82
2020-03-16 03:00:00 14.7 10 Noroeste 29 Noroeste 0 -- -- 84
2020-03-16 02:00:00 14.6 15 Noroeste 29 Noroeste 0.2 -- -- 82
2020-03-16 01:00:00 14.7 18 Noroeste 33 Noroeste 0 -- -- 78
2020-03-16 00:00:00 14.5 13 Oeste 35 Oeste 0 -- -- 80
2020-03-15 23:00:00 14.3 14 Noroeste 32 Noroeste 0 -- -- 83
2020-03-15 22:00:00 14.8 13 Noroeste 32 Oeste 0 -- -- 75
2020-03-15 21:00:00 14.6 14 Oeste 33 Noroeste 0 -- -- 74
2020-03-15 20:00:00 14.4 16 Noroeste 40 Noroeste 0.2 -- -- 81
2020-03-15 19:00:00 14.3 18 Noroeste 39 Noroeste 0 -- -- 80
2020-03-15 18:00:00 14.7 22 Noroeste 45 Noroeste 0 -- -- 77
2020-03-15 17:00:00 14.6 17 Noroeste 34 Noroeste 1.2 -- -- 86
2020-03-15 16:00:00 16.8 23 Norte 38 Noroeste 0 -- -- 68
2020-03-15 15:00:00 17.7 15 Noroeste 40 Norte 0 -- -- 57
2020-03-15 14:00:00 17.4 20 Noroeste 37 Noroeste 0 -- -- 54
2020-03-15 13:00:00 16.4 15 Noroeste 33 Noroeste 0 -- -- 65
2020-03-15 12:00:00 16.1 15 Noroeste 35 Noroeste 0 -- -- 66
2020-03-15 11:00:00 14.9 14 Noroeste 30 Noroeste 0 -- -- 76
2020-03-15 10:00:00 15.4 16 Noroeste 29 Noroeste 0 -- -- 74
2020-03-15 09:00:00 13.7 13 Noroeste 30 Noroeste 0.6 -- -- 85
2020-03-15 08:00:00 13.7 11 Noroeste 28 Noroeste 0 -- -- 80
2020-03-15 07:00:00 13.4 11 Noroeste 30 Noroeste 1 -- -- 86
2020-03-15 06:00:00 13.6 12 Noroeste 27 Noroeste 0 -- -- 81
2020-03-15 05:00:00 13.2 17 Oeste 32 Noroeste 0.4 -- -- 81
2020-03-15 04:00:00 13.8 12 Noroeste 22 Noroeste 0 -- -- 80
2020-03-15 03:00:00 13.8 11 Noroeste 28 Noroeste 0.2 -- -- 80
2020-03-15 02:00:00 14.6 12 Noroeste 27 Noroeste 0 -- -- 74
2020-03-15 01:00:00 14.6 13 Oeste 32 Noroeste 0 -- -- 69
2020-03-15 00:00:00 14.5 12 Noroeste 32 Oeste 0 -- -- 67
2020-03-14 23:00:00 14.6 14 Oeste 35 Noroeste 0 -- -- 64
2020-03-14 22:00:00 14.4 9 Noroeste 31 Noroeste 0 -- -- 64
2020-03-14 21:00:00 14.5 13 Noroeste 32 Oeste 0 -- -- 66
2020-03-14 20:00:00 14.8 12 Noroeste 30 Noroeste 0 -- -- 62
2020-03-14 19:00:00 15.1 13 Noroeste 30 Noroeste 0 -- -- 64
2020-03-14 18:00:00 15.9 14 Noroeste 33 Noroeste 0 -- -- 60
2020-03-14 17:00:00 16.5 19 Norte 33 Noroeste 0 -- -- 61
2020-03-14 16:00:00 17 18 Noroeste 30 Norte 0 -- -- 60
2020-03-14 15:00:00 16.6 12 Noroeste 28 Noroeste 0 -- -- 64
2020-03-14 14:00:00 16.3 11 Norte 27 Nordeste 0 -- -- 69
2020-03-14 13:00:00 16.2 13 Norte 28 Norte 0 -- -- 72
2020-03-14 12:00:00 16.3 13 Nordeste 23 Norte 0 -- -- 72
2020-03-14 11:00:00 16.3 14 Norte 25 Nordeste 0 -- -- 72
2020-03-14 10:00:00 16.8 10 Noroeste 34 Oeste 0 -- -- 66
2020-03-14 09:00:00 16.5 12 Noroeste 30 Noroeste 0 -- -- 65
2020-03-14 08:00:00 15.2 14 Noroeste 26 Noroeste 0 -- -- 76
2020-03-14 07:00:00 14.7 12 Noroeste 27 Noroeste 0 -- -- 78
2020-03-14 06:00:00 14.9 10 Noroeste 23 Noroeste 0 -- -- 80
2020-03-14 05:00:00 14.8 11 Noroeste 23 Norte 0 -- -- 80
2020-03-14 04:00:00 15 12 Noroeste 29 Noroeste 0 -- -- 79
2020-03-14 03:00:00 14.9 11 Norte 23 Noroeste 0 -- -- 83
2020-03-14 02:00:00 15.4 10 Noroeste 23 Norte 0 -- -- 83
2020-03-14 01:00:00 15.5 11 Noroeste 23 Norte 0 -- -- 82
2020-03-14 00:00:00 16 10 Noroeste 26 Oeste 0 -- -- 72
2020-03-13 23:00:00 15.6 16 Noroeste 30 Noroeste 0 -- -- 79
2020-03-13 22:00:00 15.6 16 Noroeste 27 Noroeste 0 -- -- 79
2020-03-13 21:00:00 15.7 15 Noroeste 30 Noroeste 0 -- -- 76
2020-03-13 20:00:00 16 14 Noroeste 33 Noroeste 0 -- -- 78
2020-03-13 19:00:00 16 18 Norte 31 Noroeste 0 -- -- 77
2020-03-13 18:00:00 16.7 19 Norte 33 Noroeste 0 -- -- 71
2020-03-13 17:00:00 17.4 16 Norte 33 Norte 0 -- -- 71
2020-03-13 16:00:00 19.3 15 Norte 30 Norte 0 -- -- 65
2020-03-13 15:00:00 19.1 14 Nordeste 27 Nordeste 0 -- -- 67
2020-03-13 14:00:00 19.5 13 Nordeste 27 Nordeste 0 -- -- 64
2020-03-13 13:00:00 20.2 14 Nordeste 26 Nordeste 0 -- -- 61
2020-03-13 12:00:00 20 11 Norte 26 Norte 0 -- -- 63
2020-03-13 11:00:00 18.5 14 Norte 29 Noroeste 0 -- -- 67
2020-03-13 10:00:00 16.4 15 Noroeste 28 Noroeste 0 -- -- 76
2020-03-13 09:00:00 15.4 15 Noroeste 27 Noroeste 0 -- -- 80
2020-03-13 08:00:00 14.4 7 Norte 26 Noroeste 0 -- -- 82
2020-03-13 07:00:00 14.5 10 Noroeste 25 Oeste 0 -- -- 83
2020-03-13 06:00:00 14.4 7 Noroeste 22 Noroeste 0 -- -- 84
2020-03-13 05:00:00 14.4 8 Noroeste 22 Oeste 0 -- -- 84
2020-03-13 04:00:00 14.3 12 Noroeste 24 Noroeste 0 -- -- 85
2020-03-13 03:00:00 14.2 4 Oeste 14 Norte 0 -- -- 82
2020-03-13 02:00:00 14.7 6 Oeste 15 Noroeste 0 -- -- 77
2020-03-13 01:00:00 14.8 8 Oeste 12 Noroeste 0 -- -- 69
2020-03-13 00:00:00 14.9 7 Sudoeste 10 Sudoeste 0 -- -- 70
2020-03-12 23:00:00 14.1 3 Sudoeste 7 Sudoeste 0 -- -- 76
2020-03-12 22:00:00 15.5 0 Calma 4 Oeste 0 -- -- 82
2020-03-12 21:00:00 16.6 0 Calma 5 Norte 0 -- -- 88
2020-03-12 20:00:00 17.2 3 Noroeste 9 Sudeste 0 -- -- 87
2020-03-12 19:00:00 18.1 6 Sudeste 13 Sudeste 0 -- -- 84
2020-03-12 18:00:00 19.6 10 Sudeste 17 Este 0 -- -- 79
2020-03-12 17:00:00 21.2 9 Este 19 Este 0 -- -- 73
2020-03-12 16:00:00 22.2 11 Este 19 Este 0 -- -- 60
2020-03-12 15:00:00 23.8 9 Este 25 Este 0 -- -- 46
2020-03-12 14:00:00 24.4 15 Este 25 Este 0 -- -- 41
2020-03-12 13:00:00 23.8 15 Este 23 Este 0 -- -- 47
2020-03-12 12:00:00 24.7 13 Este 20 Este 0 -- -- 33
2020-03-12 11:00:00 24.4 11 Este 16 Nordeste 0 -- -- 34
2020-03-12 10:00:00 25.3 7 Este 11 Este 0 -- -- 33
2020-03-12 09:00:00 23.5 3 Sur 17 Oeste 0 -- -- 19
2020-03-12 08:00:00 19.5 12 Oeste 19 Oeste 0 -- -- 18
2020-03-12 07:00:00 17.1 8 Oeste 21 Oeste 0 -- -- 20
2020-03-12 06:00:00 18.8 16 Oeste 22 Oeste 0 -- -- 17
2020-03-12 05:00:00 18.4 14 Oeste 22 Sudoeste 0 -- -- 17
2020-03-12 04:00:00 16.1 13 Oeste 18 Oeste 0 -- -- 29
2020-03-12 03:00:00 14.9 10 Sudoeste 14 Sudoeste 0 -- -- 39
2020-03-12 02:00:00 15 3 Sudoeste 7 Sudeste 0 -- -- 36
2020-03-12 01:00:00 15.3 4 Oeste 8 Sudoeste 0 -- -- 31
2020-03-12 00:00:00 15 3 Sudeste 13 Este 0 -- -- 85
2020-03-11 23:00:00 17.7 6 Noroeste 18 Oeste 0 -- -- 65
2020-03-11 22:00:00 20.5 13 Oeste 17 Oeste 0 -- -- 20
2020-03-11 21:00:00 19.5 8 Sudoeste 10 Sudoeste 0 -- -- 31
2020-03-11 20:00:00 18.7 4 Oeste 7 Oeste 0 -- -- 65
2020-03-11 19:00:00 19.5 3 Oeste 10 Este 0 -- -- 68
2020-03-11 18:00:00 20.5 3 Este 14 Este 0 -- -- 61
2020-03-11 17:00:00 22.5 9 Este 20 Este 0 -- -- 54
2020-03-11 16:00:00 23.6 10 Nordeste 19 Este 0 -- -- 44
2020-03-11 15:00:00 23.2 13 Este 24 Sudeste 0 -- -- 42
2020-03-11 14:00:00 25.5 16 Este 31 Este 0 -- -- 29
2020-03-11 13:00:00 24.9 16 Este 27 Este 0 -- -- 36
2020-03-11 12:00:00 22.4 10 Este 17 Nordeste 0 -- -- 36
2020-03-11 11:00:00 21.3 2 Nordeste 6 Oeste 0 -- -- 37
2020-03-11 10:00:00 19 3 Este 6 Oeste 0 -- -- 49
2020-03-11 09:00:00 19.6 4 Oeste 5 Oeste 0 -- -- 22
2020-03-11 08:00:00 17.5 6 Oeste 15 Oeste 0 -- -- 23
2020-03-11 07:00:00 11.9 4 Oeste 12 Oeste 0 -- -- 37
2020-03-11 06:00:00 11.5 5 Sudoeste 11 Oeste 0 -- -- 48
2020-03-11 05:00:00 12.2 6 Oeste 9 Oeste 0 -- -- 62
2020-03-11 04:00:00 12.7 2 Oeste 9 Oeste 0 -- -- 36
2020-03-11 03:00:00 14.5 9 Sudeste 14 Oeste 0 -- -- 52
2020-03-11 02:00:00 15.5 3 Oeste 15 Oeste 0 -- -- 28
2020-03-11 01:00:00 17.1 10 Oeste 18 Sudoeste 0 -- -- 20
2020-03-11 00:00:00 16.7 10 Oeste 17 Oeste 0 -- -- 28
2020-03-10 23:00:00 14.3 0 Calma 7 Sudeste 0 -- -- 83
2020-03-10 22:00:00 15.8 3 Sudeste 8 Sudoeste 0 -- -- 80
2020-03-10 21:00:00 16.4 7 Sudoeste 10 Sudoeste 0 -- -- 58
2020-03-10 20:00:00 16.6 6 Oeste 12 Noroeste 0 -- -- 84
2020-03-10 19:00:00 17.1 0 Calma 14 Este 0 -- -- 83
2020-03-10 18:00:00 18.6 7 Este 17 Sudeste 0 -- -- 78
2020-03-10 17:00:00 20 10 Este 19 Este 0 -- -- 73
2020-03-10 16:00:00 20.8 12 Este 22 Sudeste 0 -- -- 69
2020-03-10 15:00:00 22.2 12 Este 21 Este 0 -- -- 62
2020-03-10 14:00:00 22.8 13 Este 20 Este 0 -- -- 58
2020-03-10 13:00:00 20.1 10 Este 19 Este 0 -- -- 70
2020-03-10 12:00:00 20 10 Este 18 Este 0 -- -- 69
2020-03-10 11:00:00 20.1 8 Este 18 Este 0 -- -- 66
2020-03-10 10:00:00 19.9 10 Este 16 Este 0 -- -- 61
2020-03-10 09:00:00 20.1 8 Este 17 Oeste 0 -- -- 40
2020-03-10 08:00:00 17 13 Oeste 20 Oeste 0 -- -- 19
2020-03-10 07:00:00 16.3 10 Oeste 20 Oeste 0 -- -- 21
2020-03-10 06:00:00 16 10 Sudoeste 14 Sudoeste 0 -- -- 23
2020-03-10 05:00:00 17.6 10 Oeste 18 Oeste 0 -- -- 20
2020-03-10 04:00:00 17.7 13 Oeste 20 Oeste 0 -- -- 22
2020-03-10 03:00:00 16.8 13 Oeste 18 Oeste 0 -- -- 26
2020-03-10 02:00:00 17.4 11 Oeste 19 Oeste 0 -- -- 29
2020-03-10 01:00:00 19 9 Noroeste 19 Oeste 0 -- -- 27
2020-03-10 00:00:00 18.3 15 Oeste 21 Oeste 0 -- -- 30
2020-03-09 23:00:00 17.9 8 Oeste 12 Oeste 0 -- -- 39
2020-03-09 22:00:00 16 8 Oeste 13 Noroeste 0 -- -- 56
2020-03-09 21:00:00 16.5 3 Sur 7 Oeste 0 -- -- 78
2020-03-09 20:00:00 17.2 0 Calma 9 Noroeste 0 -- -- 80
2020-03-09 19:00:00 18.4 3 Este 13 Este 0 -- -- 75
2020-03-09 18:00:00 19.6 10 Sudeste 16 Este 0 -- -- 69
2020-03-09 17:00:00 22.2 11 Este 18 Sudeste 0 -- -- 60
2020-03-09 16:00:00 23.1 11 Este 21 Este 0 -- -- 48
2020-03-09 15:00:00 23.8 11 Este 19 Este 0 -- -- 32
2020-03-09 14:00:00 24.4 11 Este 19 Nordeste 0 -- -- 32
2020-03-09 13:00:00 24.2 12 Este 22 Sudeste 0 -- -- 30
2020-03-09 12:00:00 24.2 9 Este 19 Nordeste 0 -- -- 29
2020-03-09 11:00:00 23.3 7 Este 27 Este 0 -- -- 30
2020-03-09 10:00:00 22.2 6 Sudoeste 19 Sudeste 0 -- -- 40
2020-03-09 09:00:00 19.5 5 Este 13 Oeste 0 -- -- 45
2020-03-09 08:00:00 18 8 Sudoeste 17 Oeste 0 -- -- 32
2020-03-09 07:00:00 17.6 9 Oeste 22 Oeste 0 -- -- 31
2020-03-09 06:00:00 17.1 15 Oeste 22 Oeste 0 -- -- 31
2020-03-09 05:00:00 16.8 12 Oeste 23 Oeste 0 -- -- 33
2020-03-09 04:00:00 16.6 14 Oeste 21 Oeste 0 -- -- 36
2020-03-09 03:00:00 15.8 6 Noroeste 18 Oeste 0 -- -- 50
2020-03-09 02:00:00 15.3 10 Oeste 15 Oeste 0 -- -- 43
2020-03-09 01:00:00 15.4 6 Oeste 14 Oeste 0 -- -- 46
2020-03-09 00:00:00 16.1 6 Sudoeste 13 Oeste 0 -- -- 46
2020-03-08 23:00:00 16.7 5 Sudoeste 15 Oeste 0 -- -- 55
2020-03-08 22:00:00 16.6 7 Oeste 13 Oeste 0 -- -- 64
2020-03-08 21:00:00 16.4 3 Noroeste 8 Noroeste 0 -- -- 85
2020-03-08 20:00:00 17.3 4 Sudeste 12 Este 0 -- -- 83
2020-03-08 19:00:00 18.7 7 Sudeste 14 Este 0 -- -- 78
2020-03-08 18:00:00 20.3 5 Este 13 Este 0 -- -- 73
2020-03-08 17:00:00 21.6 7 Este 19 Sudeste 0 -- -- 68
2020-03-08 16:00:00 22.1 11 Este 21 Sudeste 0 -- -- 61
2020-03-08 15:00:00 23.1 12 Este 21 Este 0 -- -- 55
2020-03-08 14:00:00 22.4 12 Este 22 Nordeste 0 -- -- 62
2020-03-08 13:00:00 23.8 10 Este 21 Este 0 -- -- 50
2020-03-08 12:00:00 24.2 9 Nordeste 22 Este 0 -- -- 37
2020-03-08 11:00:00 22.2 8 Sudeste 17 Sudeste 0 -- -- 55
2020-03-08 10:00:00 21.5 10 Este 18 Este 0 -- -- 56
2020-03-08 09:00:00 19.9 4 Oeste 21 Oeste 0 -- -- 36
2020-03-08 08:00:00 16.3 14 Oeste 21 Oeste 0 -- -- 38
2020-03-08 07:00:00 15.2 13 Oeste 19 Oeste 0 -- -- 42
2020-03-08 06:00:00 13.8 10 Oeste 16 Oeste 0 -- -- 52
2020-03-08 05:00:00 13.7 9 Oeste 18 Sudoeste 0 -- -- 55
2020-03-08 04:00:00 12.6 15 Oeste 22 Oeste 0 -- -- 73
2020-03-08 03:00:00 14.1 6 Oeste 31 Noroeste 0 -- -- 80
2020-03-08 02:00:00 14.6 18 Noroeste 38 Noroeste 0 -- -- 82
2020-03-08 01:00:00 14.7 22 Noroeste 36 Noroeste 0 -- -- 82
2020-03-08 00:00:00 14.5 7 Oeste 34 Noroeste 0 -- -- 75
2020-03-07 23:00:00 14.9 22 Noroeste 38 Oeste 0 -- -- 79
2020-03-07 22:00:00 14.9 18 Noroeste 40 Noroeste 0 -- -- 80
2020-03-07 21:00:00 15 21 Noroeste 45 Noroeste 0 -- -- 79
2020-03-07 20:00:00 15 17 Noroeste 35 Noroeste 0 -- -- 77
2020-03-07 19:00:00 15.4 20 Noroeste 40 Noroeste 0 -- -- 76
2020-03-07 18:00:00 16.5 22 Norte 39 Norte 0 -- -- 72
2020-03-07 17:00:00 17.4 24 Norte 38 Norte 0 -- -- 68
2020-03-07 16:00:00 18.5 22 Norte 39 Norte 0 -- -- 62
2020-03-07 15:00:00 18.8 24 Norte 40 Noroeste 0 -- -- 62
2020-03-07 14:00:00 19.3 24 Norte 38 Norte 0 -- -- 59
2020-03-07 13:00:00 18.4 26 Norte 38 Noroeste 0 -- -- 60
2020-03-07 12:00:00 18 18 Noroeste 40 Noroeste 0 -- -- 61
2020-03-07 11:00:00 17.7 22 Norte 35 Noroeste 0 -- -- 64
2020-03-07 10:00:00 16.2 17 Norte 34 Norte 0 -- -- 68
2020-03-07 09:00:00 15.4 14 Noroeste 32 Oeste 0 -- -- 70
2020-03-07 08:00:00 14.7 19 Noroeste 31 Noroeste 0 -- -- 71
2020-03-07 07:00:00 14.4 15 Oeste 27 Oeste 0 -- -- 71
2020-03-07 06:00:00 14.4 14 Noroeste 34 Noroeste 0 -- -- 72
2020-03-07 05:00:00 14.2 14 Oeste 32 Oeste 0 -- -- 73
2020-03-07 04:00:00 14.3 18 Noroeste 33 Noroeste 0 -- -- 73
2020-03-07 03:00:00 14.3 17 Oeste 32 Noroeste 0 -- -- 72
2020-03-07 02:00:00 14.2 17 Noroeste 38 Noroeste 0 -- -- 74
2020-03-07 01:00:00 14.1 16 Oeste 38 Norte 0 -- -- 71
2020-03-07 00:00:00 14.3 18 Noroeste 37 Noroeste 0 -- -- 74
2020-03-06 23:00:00 14.3 13 Noroeste 36 Noroeste 0 -- -- 71
2020-03-06 22:00:00 14.5 21 Noroeste 37 Oeste 0 -- -- 70
2020-03-06 21:00:00 14.7 15 Noroeste 33 Noroeste 0 -- -- 71
2020-03-06 20:00:00 14.7 15 Noroeste 39 Noroeste 0 -- -- 71
2020-03-06 19:00:00 14.8 20 Noroeste 33 Noroeste 0 -- -- 73
2020-03-06 18:00:00 16.3 23 Noroeste 38 Norte 0 -- -- 68
2020-03-06 17:00:00 16.2 22 Norte 37 Noroeste 0 -- -- 69
2020-03-06 16:00:00 16 17 Noroeste 41 Noroeste 0 -- -- 68
2020-03-06 15:00:00 16.2 13 Norte 44 Norte 0 -- -- 69
2020-03-06 14:00:00 15.7 25 Noroeste 39 Noroeste 0 -- -- 70
2020-03-06 13:00:00 15.7 17 Noroeste 37 Norte 0 -- -- 72
2020-03-06 12:00:00 15 17 Noroeste 38 Noroeste 0 -- -- 77
2020-03-06 11:00:00 14.6 19 Noroeste 34 Noroeste 0 -- -- 77
2020-03-06 10:00:00 14.1 19 Noroeste 35 Noroeste 0 -- -- 81
2020-03-06 09:00:00 13.5 17 Noroeste 36 Noroeste 0 -- -- 86
2020-03-06 08:00:00 13.6 14 Noroeste 41 Noroeste 0 -- -- 87
2020-03-06 07:00:00 13.9 17 Norte 32 Norte 1.2 -- -- 93
2020-03-06 06:00:00 14.6 19 Norte 35 Norte 0.6 -- -- 93
2020-03-06 05:00:00 14.9 13 Norte 32 Norte 1.4 -- -- 93
2020-03-06 04:00:00 15.3 10 Noroeste 26 Noroeste 0.8 -- -- 92
2020-03-06 03:00:00 16 18 Oeste 33 Oeste 0 -- -- 81
2020-03-06 02:00:00 16.1 15 Noroeste 37 Noroeste 0 -- -- 77
2020-03-06 01:00:00 15.8 15 Noroeste 39 Noroeste 0 -- -- 79
2020-03-06 00:00:00 15.9 17 Noroeste 32 Noroeste 0 -- -- 78
2020-03-05 23:00:00 15.5 14 Noroeste 36 Noroeste 0 -- -- 81
2020-03-05 22:00:00 15.7 18 Noroeste 40 Noroeste 0 -- -- 78
2020-03-05 21:00:00 15.8 21 Noroeste 41 Noroeste 0 -- -- 77
2020-03-05 20:00:00 15.9 19 Noroeste 33 Norte 0 -- -- 78
2020-03-05 19:00:00 16.3 21 Noroeste 43 Norte 0 -- -- 75
2020-03-05 18:00:00 17.3 25 Norte 40 Norte 0 -- -- 70
2020-03-05 17:00:00 18.3 27 Norte 39 Norte 0 -- -- 69
2020-03-05 16:00:00 19.4 26 Norte 38 Norte 0 -- -- 63
2020-03-05 15:00:00 19.4 23 Norte 42 Noroeste 0 -- -- 64
2020-03-05 14:00:00 19.6 23 Norte 41 Norte 0 -- -- 64
2020-03-05 13:00:00 19.8 26 Norte 41 Norte 0 -- -- 66
2020-03-05 12:00:00 19.6 27 Norte 39 Norte 0 -- -- 67
2020-03-05 11:00:00 19 26 Norte 44 Norte 0 -- -- 67
2020-03-05 10:00:00 17.5 24 Norte 40 Norte 0 -- -- 73
2020-03-05 09:00:00 15.7 15 Noroeste 36 Norte 0 -- -- 82
2020-03-05 08:00:00 14.7 22 Norte 39 Noroeste 0 -- -- 85
2020-03-05 07:00:00 14.2 6 Noroeste 27 Norte 0 -- -- 85
2020-03-05 06:00:00 14.8 20 Norte 34 Norte 0 -- -- 81
2020-03-05 05:00:00 14.2 5 Sudoeste 15 Oeste 0 -- -- 77
2020-03-05 04:00:00 15 4 Oeste 24 Oeste 0 -- -- 76
2020-03-05 03:00:00 14.7 3 Sudoeste 9 Sudoeste 0 -- -- 73
2020-03-05 02:00:00 14.9 4 Oeste 12 Oeste 0 -- -- 73
2020-03-05 01:00:00 15.1 0 Calma 7 Oeste 0 -- -- 72
2020-03-05 00:00:00 16 4 Sudeste 9 Este 0 -- -- 70
2020-03-04 23:00:00 19.3 10 Oeste 19 Oeste 0 -- -- 39
2020-03-04 22:00:00 19.2 11 Oeste 17 Oeste 0 -- -- 43
2020-03-04 21:00:00 18.9 8 Sudoeste 12 Oeste 0 -- -- 51
2020-03-04 20:00:00 19.4 8 Sudoeste 10 Sudoeste 0 -- -- 55
2020-03-04 19:00:00 19 0 Calma 10 Sudeste 0 -- -- 75
2020-03-04 18:00:00 20.6 6 Este 14 Sudeste 0 -- -- 70
2020-03-04 17:00:00 20.9 10 Sudeste 19 Sudeste 0 -- -- 69
2020-03-04 16:00:00 22.5 10 Nordeste 19 Este 0 -- -- 62
2020-03-04 15:00:00 23.2 12 Nordeste 23 Nordeste 0 -- -- 60
2020-03-04 14:00:00 23.5 10 Nordeste 19 Nordeste 0 -- -- 56
2020-03-04 13:00:00 23.7 12 Nordeste 19 Nordeste 0 -- -- 55
2020-03-04 12:00:00 24.1 11 Este 19 Nordeste 0 -- -- 56
2020-03-04 11:00:00 25.1 10 Nordeste 17 Nordeste 0 -- -- 37
2020-03-04 10:00:00 22.6 5 Este 13 Noroeste 0 -- -- 47
2020-03-04 09:00:00 21 4 Noroeste 16 Noroeste 0 -- -- 31
2020-03-04 08:00:00 17.2 10 Sudoeste 17 Oeste 0 -- -- 35
2020-03-04 07:00:00 16.4 13 Sudoeste 23 Oeste 0 -- -- 34
2020-03-04 06:00:00 16.1 14 Oeste 23 Oeste 0 -- -- 36
2020-03-04 05:00:00 15.4 14 Oeste 21 Oeste 0 -- -- 39
2020-03-04 04:00:00 16.1 17 Oeste 23 Oeste 0 -- -- 39
2020-03-04 03:00:00 16 12 Oeste 18 Oeste 0 -- -- 41
2020-03-04 02:00:00 16.3 10 Sudoeste 17 Sudoeste 0 -- -- 44
2020-03-04 01:00:00 16.6 9 Oeste 16 Oeste 0 -- -- 44
2020-03-04 00:00:00 16.3 9 Oeste 14 Oeste 0 -- -- 49
2020-03-03 23:00:00 14.8 4 Sudoeste 19 Oeste 0 -- -- 80
2020-03-03 22:00:00 15.5 12 Oeste 22 Noroeste 0 -- -- 81
2020-03-03 21:00:00 15.7 9 Noroeste 18 Noroeste 0 -- -- 81
2020-03-03 20:00:00 16 10 Noroeste 22 Noroeste 0 -- -- 82
2020-03-03 19:00:00 17.6 4 Norte 21 Norte 0 -- -- 75
2020-03-03 18:00:00 20.1 12 Noroeste 24 Norte 0 -- -- 65
2020-03-03 17:00:00 21.4 11 Norte 23 Norte 0 -- -- 60
2020-03-03 16:00:00 22.6 11 Norte 23 Norte 0 -- -- 55
2020-03-03 15:00:00 23 13 Norte 23 Nordeste 0 -- -- 55
2020-03-03 14:00:00 22.9 13 Norte 23 Norte 0 -- -- 57
2020-03-03 13:00:00 22.2 8 Norte 25 Norte 0 -- -- 60
2020-03-03 12:00:00 21.6 10 Norte 22 Norte 0 -- -- 61
2020-03-03 11:00:00 19.6 15 Norte 26 Norte 0 -- -- 67
2020-03-03 10:00:00 17.8 13 Norte 22 Norte 0 -- -- 74
2020-03-03 09:00:00 15.3 10 Noroeste 21 Oeste 0 -- -- 83
2020-03-03 08:00:00 14.6 12 Oeste 23 Oeste 0 -- -- 84
2020-03-03 07:00:00 14.5 5 Oeste 20 Oeste 0 -- -- 85
2020-03-03 06:00:00 14.4 9 Oeste 19 Oeste 0 -- -- 81
2020-03-03 05:00:00 14.4 8 Oeste 16 Oeste 0 -- -- 86
2020-03-03 04:00:00 13.1 7 Sudoeste 13 Sudoeste 0 -- -- 76
2020-03-03 03:00:00 14.1 7 Noroeste 22 Noroeste 0 -- -- 79
2020-03-03 02:00:00 14.3 6 Oeste 25 Oeste 0 -- -- 75
2020-03-03 01:00:00 15.3 13 Noroeste 28 Noroeste 0 -- -- 78
2020-03-03 00:00:00 15.9 9 Noroeste 29 Noroeste 0 -- -- 74
2020-03-02 23:00:00 16.5 14 Noroeste 31 Oeste 0 -- -- 68
2020-03-02 22:00:00 15.9 17 Noroeste 32 Norte 0 -- -- 77
2020-03-02 21:00:00 16.2 14 Noroeste 29 Noroeste 0 -- -- 80
2020-03-02 20:00:00 17.2 16 Noroeste 31 Noroeste 0 -- -- 73
2020-03-02 19:00:00 16.9 13 Noroeste 35 Norte 0 -- -- 74
2020-03-02 18:00:00 18.5 14 Norte 35 Norte 0 -- -- 68
2020-03-02 17:00:00 19.7 20 Norte 39 Noroeste 0 -- -- 61
2020-03-02 16:00:00 20.1 25 Norte 40 Norte 0 -- -- 61
2020-03-02 15:00:00 20.5 21 Noroeste 40 Norte 0 -- -- 56
2020-03-02 14:00:00 20.8 24 Norte 37 Norte 0 -- -- 60
2020-03-02 13:00:00 20.1 23 Noroeste 37 Norte 0 -- -- 61
2020-03-02 12:00:00 20.2 19 Norte 40 Norte 0 -- -- 60
2020-03-02 11:00:00 20.3 14 Norte 33 Noroeste 0 -- -- 59
2020-03-02 10:00:00 17.8 17 Noroeste 32 Noroeste 0 -- -- 68
2020-03-02 09:00:00 16.9 14 Noroeste 40 Norte 0 -- -- 71
2020-03-02 08:00:00 15.5 16 Norte 31 Noroeste 0 -- -- 73
2020-03-02 07:00:00 15.1 10 Noroeste 25 Noroeste 0 -- -- 74
2020-03-02 06:00:00 14.9 10 Noroeste 27 Noroeste 0 -- -- 76
2020-03-02 05:00:00 14.9 14 Noroeste 28 Oeste 0 -- -- 75
2020-03-02 04:00:00 15 12 Noroeste 26 Noroeste 0 -- -- 77
2020-03-02 03:00:00 14.8 13 Noroeste 31 Norte 0 -- -- 80
2020-03-02 02:00:00 15.3 17 Norte 34 Noroeste 0 -- -- 79
2020-03-02 01:00:00 15.5 19 Noroeste 39 Noroeste 0 -- -- 77
2020-03-02 00:00:00 15.3 16 Noroeste 31 Norte 0 -- -- 79